Time;durP1;ratioP1;P1;durP2;ratioP2;P2;SDS_P1;SDS_P2;PMS_P1;PMS_P2;Temp;Humidity;BMP_temperature;BMP_pressure;BME280_temperature;BME280_humidity;BME280_pressure;Samples;Min_cycle;Max_cycle;Signal;HPM_P1;HPM_P2
2023/08/22 00:00:37;;;;;;;6.47;4.38;;;;;;;;;;5008070;28;20029;-86
2023/08/22 00:03:02;;;;;;;9.25;5.00;;;;;;;;;;5021111;28;20025;-79
2023/08/22 00:05:28;;;;;;;10.90;5.47;;;;;;;;;;5026345;28;20029;-80
2023/08/22 00:07:53;;;;;;;7.32;4.70;;;;;;;;;;5030561;28;20017;-79
2023/08/22 00:10:19;;;;;;;8.45;3.72;;;;;;;;;;5034991;28;20029;-80
2023/08/22 00:12:45;;;;;;;7.75;4.50;;;;;;;;;;5020484;28;20018;-86
2023/08/22 00:15:12;;;;;;;6.40;4.72;;;;;;;;;;5015539;28;20507;-87
2023/08/22 00:17:39;;;;;;;6.75;4.80;;;;;;;;;;5012744;28;20519;-85
2023/08/22 00:20:07;;;;;;;7.20;4.28;;;;;;;;;;5022753;28;20036;-85
2023/08/22 00:22:33;;;;;;;7.55;4.32;;;;;;;;;;5016652;28;20454;-85
2023/08/22 00:24:59;;;;;;;7.95;4.88;;;;;;;;;;5015937;28;20109;-87
2023/08/22 00:27:24;;;;;;;7.30;3.90;;;;;;;;;;5012806;28;20116;-87
2023/08/22 00:29:49;;;;;;;5.97;4.00;;;;;;;;;;5007509;28;20107;-87
2023/08/22 00:32:15;;;;;;;6.88;3.97;;;;;;;;;;5011689;28;20030;-87
2023/08/22 00:34:40;;;;;;;6.00;4.00;;;;;;;;;;5016527;28;20064;-87
2023/08/22 00:37:06;;;;;;;6.43;3.65;;;;;;;;;;5010141;28;20275;-87
2023/08/22 00:39:32;;;;;;;6.32;3.80;;;;;;;;;;5014117;28;20101;-87
2023/08/22 00:41:58;;;;;;;7.68;4.03;;;;;;;;;;5013702;28;20429;-86
2023/08/22 00:44:23;;;;;;;5.18;3.70;;;;;;;;;;5013398;28;20042;-87
2023/08/22 00:46:49;;;;;;;6.50;4.10;;;;;;;;;;5007085;28;20061;-87
2023/08/22 00:49:14;;;;;;;6.20;4.30;;;;;;;;;;5009579;28;20576;-86
2023/08/22 00:51:40;;;;;;;10.30;4.50;;;;;;;;;;5011237;28;20036;-85
2023/08/22 00:54:06;;;;;;;5.88;3.60;;;;;;;;;;5014572;28;20477;-84
2023/08/22 00:56:32;;;;;;;8.88;5.38;;;;;;;;;;5011132;28;20030;-87
2023/08/22 00:59:02;;;;;;;7.22;4.90;;;;;;;;;;5014357;28;20075;-87
2023/08/22 01:01:28;;;;;;;7.63;5.15;;;;;;;;;;5015882;28;20065;-86
2023/08/22 01:03:54;;;;;;;7.10;4.93;;;;;;;;;;5017494;28;20053;-87
2023/08/22 01:06:53;;;;;;;7.00;4.78;;;;;;;;;;5017511;28;20068;-86
2023/08/22 01:09:37;;;;;;;5.60;4.30;;;;;;;;;;5019839;28;20026;-87
2023/08/22 01:12:24;;;;;;;5.03;3.78;;;;;;;;;;5013773;28;20033;-87
2023/08/22 01:15:24;;;;;;;6.78;4.45;;;;;;;;;;5011094;28;20058;-87
2023/08/22 01:17:54;;;;;;;6.32;4.10;;;;;;;;;;5006879;28;20125;-87
2023/08/22 01:20:21;;;;;;;6.20;3.20;;;;;;;;;;5010127;28;20022;-87
2023/08/22 01:22:46;;;;;;;6.32;3.70;;;;;;;;;;5008804;28;20473;-86
2023/08/22 01:25:11;;;;;;;5.85;3.53;;;;;;;;;;5011422;28;20116;-87
2023/08/22 01:27:46;;;;;;;5.22;3.55;;;;;;;;;;5014274;28;20040;-87
2023/08/22 01:30:24;;;;;;;6.38;3.70;;;;;;;;;;5013715;28;20396;-85
2023/08/22 01:32:55;;;;;;;7.63;3.70;;;;;;;;;;5013024;28;20405;-86
2023/08/22 01:35:22;;;;;;;6.43;3.70;;;;;;;;;;5015674;28;20126;-87
2023/08/22 01:37:51;;;;;;;6.43;3.60;;;;;;;;;;5011518;28;20030;-87
2023/08/22 01:40:17;;;;;;;6.00;3.50;;;;;;;;;;5008736;28;20486;-86
2023/08/22 01:42:42;;;;;;;6.63;3.72;;;;;;;;;;5013337;28;20037;-86
2023/08/22 01:45:08;;;;;;;5.35;3.70;;;;;;;;;;4993953;28;20095;-87
2023/08/22 01:47:35;;;;;;;4.90;3.80;;;;;;;;;;5011800;28;20037;-87
2023/08/22 01:50:02;;;;;;;5.70;4.00;;;;;;;;;;5007933;28;20045;-85
2023/08/22 01:52:28;;;;;;;5.70;3.80;;;;;;;;;;5020087;28;20025;-87
2023/08/22 01:54:53;;;;;;;6.68;3.90;;;;;;;;;;5014367;28;20034;-87
2023/08/22 01:57:19;;;;;;;5.10;3.88;;;;;;;;;;5010410;28;20032;-86
2023/08/22 01:59:44;;;;;;;7.45;4.35;;;;;;;;;;5007417;28;20052;-86
2023/08/22 02:02:09;;;;;;;6.55;3.92;;;;;;;;;;5010542;28;20029;-87
2023/08/22 02:04:35;;;;;;;6.95;4.60;;;;;;;;;;5012314;28;20028;-87
2023/08/22 02:07:00;;;;;;;5.57;3.90;;;;;;;;;;5012563;28;20030;-87
2023/08/22 02:09:25;;;;;;;6.72;3.97;;;;;;;;;;5006646;28;20084;-88
2023/08/22 02:11:52;;;;;;;6.88;4.20;;;;;;;;;;5010250;28;20025;-86
2023/08/22 02:14:17;;;;;;;5.43;4.32;;;;;;;;;;5015743;28;20113;-86
2023/08/22 02:16:42;;;;;;;9.00;4.00;;;;;;;;;;5011126;28;20112;-87
2023/08/22 02:19:08;;;;;;;7.20;4.75;;;;;;;;;;5017969;28;20394;-87
2023/08/22 02:21:33;;;;;;;8.57;5.55;;;;;;;;;;5005792;28;20494;-87
2023/08/22 02:23:59;;;;;;;7.78;4.15;;;;;;;;;;5009879;28;20032;-86
2023/08/22 02:26:26;;;;;;;8.18;4.47;;;;;;;;;;5001788;28;20033;-87
2023/08/22 02:28:52;;;;;;;7.07;5.10;;;;;;;;;;5006850;28;20116;-86
2023/08/22 02:31:18;;;;;;;6.93;4.75;;;;;;;;;;5011119;28;20029;-87
2023/08/22 02:33:43;;;;;;;8.18;4.78;;;;;;;;;;5025146;28;20492;-82
2023/08/22 02:36:08;;;;;;;7.00;5.13;;;;;;;;;;5009044;28;20478;-82
2023/08/22 02:38:34;;;;;;;6.57;4.60;;;;;;;;;;5008247;28;20797;-82
2023/08/22 02:40:59;;;;;;;7.20;4.35;;;;;;;;;;5008780;28;20026;-82
2023/08/22 02:43:25;;;;;;;7.15;4.60;;;;;;;;;;5012761;28;20394;-82
2023/08/22 02:45:50;;;;;;;9.73;5.90;;;;;;;;;;5009047;28;20477;-82
2023/08/22 02:48:15;;;;;;;9.48;5.03;;;;;;;;;;5009529;28;20025;-82
2023/08/22 02:50:41;;;;;;;7.93;5.10;;;;;;;;;;5012935;28;20129;-82
2023/08/22 02:53:09;;;;;;;7.97;5.25;;;;;;;;;;5008125;28;20037;-82
2023/08/22 02:55:34;;;;;;;8.30;4.93;;;;;;;;;;5009087;28;20022;-82
2023/08/22 02:58:00;;;;;;;7.45;5.18;;;;;;;;;;5008130;28;20040;-82
2023/08/22 03:00:25;;;;;;;8.57;5.60;;;;;;;;;;5016115;28;20044;-82
2023/08/22 03:02:50;;;;;;;7.70;5.47;;;;;;;;;;5012621;28;20045;-82
2023/08/22 03:05:17;;;;;;;7.35;4.88;;;;;;;;;;5014061;28;20117;-82
2023/08/22 03:07:43;;;;;;;7.38;4.88;;;;;;;;;;5011759;28;20022;-82
2023/08/22 03:10:08;;;;;;;6.18;4.65;;;;;;;;;;5010243;28;20037;-82
2023/08/22 03:12:34;;;;;;;7.40;5.00;;;;;;;;;;5013827;28;20038;-82
2023/08/22 03:15:02;;;;;;;7.95;4.82;;;;;;;;;;5010044;28;20026;-82
2023/08/22 03:17:27;;;;;;;6.47;5.10;;;;;;;;;;5009035;28;20036;-82
2023/08/22 03:19:53;;;;;;;7.82;4.53;;;;;;;;;;5010849;28;20049;-82
2023/08/22 03:22:18;;;;;;;6.55;4.55;;;;;;;;;;5024844;28;20402;-81
2023/08/22 03:24:43;;;;;;;7.25;4.75;;;;;;;;;;5014018;28;20038;-82
2023/08/22 03:27:09;;;;;;;7.45;4.70;;;;;;;;;;5012047;28;20026;-81
2023/08/22 03:29:34;;;;;;;8.27;5.50;;;;;;;;;;5011872;28;20073;-82
2023/08/22 03:31:59;;;;;;;6.18;4.65;;;;;;;;;;5018371;28;20026;-79
2023/08/22 03:34:25;;;;;;;6.80;4.65;;;;;;;;;;5016797;28;20034;-79
2023/08/22 03:36:50;;;;;;;6.90;4.82;;;;;;;;;;5024401;28;20164;-79
2023/08/22 03:39:16;;;;;;;6.47;4.65;;;;;;;;;;5020926;28;20044;-78
2023/08/22 03:41:41;;;;;;;8.02;4.70;;;;;;;;;;5021753;28;20033;-83
2023/08/22 03:44:06;;;;;;;7.47;4.35;;;;;;;;;;5012229;28;20036;-82
2023/08/22 03:46:32;;;;;;;6.78;4.65;;;;;;;;;;5016746;28;20025;-82
2023/08/22 03:48:57;;;;;;;7.43;4.38;;;;;;;;;;5010008;28;20052;-82
2023/08/22 03:51:23;;;;;;;7.35;4.68;;;;;;;;;;5008524;28;20026;-82
2023/08/22 03:53:49;;;;;;;8.77;4.72;;;;;;;;;;5012482;28;20063;-82
2023/08/22 03:56:15;;;;;;;6.68;5.05;;;;;;;;;;5010938;28;20022;-82
2023/08/22 03:58:40;;;;;;;6.82;4.90;;;;;;;;;;5019497;28;20041;-82
2023/08/22 04:01:05;;;;;;;7.63;5.15;;;;;;;;;;5012152;28;20052;-82
2023/08/22 04:03:31;;;;;;;7.05;4.63;;;;;;;;;;5013845;28;20029;-82
2023/08/22 04:06:03;;;;;;;6.20;4.47;;;;;;;;;;5018604;28;20033;-82
2023/08/22 04:08:29;;;;;;;6.97;4.32;;;;;;;;;;5016872;28;20117;-82
2023/08/22 04:10:54;;;;;;;6.68;4.50;;;;;;;;;;5015668;28;20096;-82
2023/08/22 04:13:20;;;;;;;5.78;4.50;;;;;;;;;;5022050;28;20025;-82
2023/08/22 04:15:45;;;;;;;7.93;4.47;;;;;;;;;;5030124;28;20033;-81
2023/08/22 04:18:11;;;;;;;5.50;4.07;;;;;;;;;;5033866;28;20033;-82
2023/08/22 04:20:36;;;;;;;6.82;4.35;;;;;;;;;;5009367;28;20028;-82
2023/08/22 04:23:02;;;;;;;7.75;4.88;;;;;;;;;;5013067;28;20045;-82
2023/08/22 04:25:27;;;;;;;5.63;4.07;;;;;;;;;;5006216;28;20034;-82
2023/08/22 04:27:53;;;;;;;6.00;4.43;;;;;;;;;;5014703;28;20041;-82
2023/08/22 04:30:18;;;;;;;6.55;4.75;;;;;;;;;;5013389;28;20057;-82
2023/08/22 04:32:44;;;;;;;6.57;4.90;;;;;;;;;;5010254;28;20037;-82
2023/08/22 04:35:09;;;;;;;12.30;4.82;;;;;;;;;;5011967;28;20026;-82
2023/08/22 04:37:35;;;;;;;9.68;4.40;;;;;;;;;;5011222;28;20030;-82
2023/08/22 04:40:00;;;;;;;7.13;5.00;;;;;;;;;;5010644;28;20049;-82
2023/08/22 04:42:26;;;;;;;6.55;4.90;;;;;;;;;;5020475;28;20510;-83
2023/08/22 04:44:51;;;;;;;9.73;5.38;;;;;;;;;;5012119;28;20018;-83
2023/08/22 04:47:16;;;;;;;7.03;4.55;;;;;;;;;;5012657;28;20029;-83
2023/08/22 04:49:42;;;;;;;6.35;4.22;;;;;;;;;;5016453;28;20385;-83
2023/08/22 04:52:07;;;;;;;7.70;4.72;;;;;;;;;;5016038;28;20105;-84
2023/08/22 04:54:33;;;;;;;8.38;5.03;;;;;;;;;;5006993;28;20041;-83
2023/08/22 04:56:59;;;;;;;8.05;5.03;;;;;;;;;;5012006;28;20111;-83
2023/08/22 04:59:24;;;;;;;10.77;5.28;;;;;;;;;;5005935;28;20021;-82
2023/08/22 05:01:50;;;;;;;7.00;4.90;;;;;;;;;;5023579;28;20132;-82
2023/08/22 05:04:16;;;;;;;6.68;4.82;;;;;;;;;;5027044;28;20026;-81
2023/08/22 05:06:42;;;;;;;6.85;4.70;;;;;;;;;;5042838;28;20030;-81
2023/08/22 05:09:09;;;;;;;8.32;5.28;;;;;;;;;;5037778;28;20018;-81
2023/08/22 05:11:35;;;;;;;8.27;4.38;;;;;;;;;;5038353;28;20010;-81
2023/08/22 05:14:00;;;;;;;7.85;4.75;;;;;;;;;;5040066;28;20032;-81
2023/08/22 05:16:26;;;;;;;8.10;4.68;;;;;;;;;;5034937;28;20030;-81
2023/08/22 05:18:51;;;;;;;9.10;5.03;;;;;;;;;;5034527;28;20043;-81
2023/08/22 05:21:17;;;;;;;8.57;4.75;;;;;;;;;;5043317;28;20073;-81
2023/08/22 05:23:42;;;;;;;9.57;5.20;;;;;;;;;;5037294;28;20068;-81
2023/08/22 05:26:07;;;;;;;8.30;4.53;;;;;;;;;;5028594;28;20104;-81
2023/08/22 05:28:33;;;;;;;9.98;5.30;;;;;;;;;;5034705;28;20029;-80
2023/08/22 05:30:58;;;;;;;6.85;4.75;;;;;;;;;;5037117;28;20017;-81
2023/08/22 05:33:23;;;;;;;10.13;5.03;;;;;;;;;;5043630;28;20045;-81
2023/08/22 05:35:49;;;;;;;7.70;5.00;;;;;;;;;;5042077;28;20010;-81
2023/08/22 05:38:14;;;;;;;8.35;4.95;;;;;;;;;;5045881;28;20006;-81
2023/08/22 05:40:39;;;;;;;7.63;3.88;;;;;;;;;;5037473;28;20017;-81
2023/08/22 05:43:05;;;;;;;7.15;4.63;;;;;;;;;;5035631;28;20041;-81
2023/08/22 05:45:31;;;;;;;6.90;4.20;;;;;;;;;;5039470;28;20022;-81
2023/08/22 05:47:56;;;;;;;7.13;4.53;;;;;;;;;;5040518;28;20034;-82
2023/08/22 05:50:22;;;;;;;9.27;4.10;;;;;;;;;;5042485;28;20010;-80
2023/08/22 05:52:47;;;;;;;6.72;4.72;;;;;;;;;;5035659;28;20006;-80
2023/08/22 05:55:13;;;;;;;7.90;4.65;;;;;;;;;;5028692;28;20057;-80
2023/08/22 05:57:38;;;;;;;8.13;4.35;;;;;;;;;;5046620;28;20075;-80
2023/08/22 06:00:04;;;;;;;7.10;4.10;;;;;;;;;;5037962;28;20018;-81
2023/08/22 06:02:30;;;;;;;6.38;3.92;;;;;;;;;;5031537;28;20041;-80
2023/08/22 06:04:55;;;;;;;6.38;4.00;;;;;;;;;;5015017;28;20018;-81
2023/08/22 06:07:20;;;;;;;10.48;5.40;;;;;;;;;;5014935;28;20026;-81
2023/08/22 06:09:46;;;;;;;8.60;4.93;;;;;;;;;;5010433;28;20125;-82
2023/08/22 06:12:11;;;;;;;8.02;5.32;;;;;;;;;;5001941;28;20104;-82
2023/08/22 06:14:38;;;;;;;9.13;4.80;;;;;;;;;;5006584;28;20442;-82
2023/08/22 06:17:03;;;;;;;10.40;6.10;;;;;;;;;;5010293;28;20030;-82
2023/08/22 06:19:28;;;;;;;7.75;5.80;;;;;;;;;;5011140;28;20068;-82
2023/08/22 06:21:54;;;;;;;9.15;5.80;;;;;;;;;;5010859;28;20501;-82
2023/08/22 06:24:19;;;;;;;10.88;5.82;;;;;;;;;;5004807;28;20026;-82
2023/08/22 06:26:45;;;;;;;9.38;5.38;;;;;;;;;;5010137;28;20033;-82
2023/08/22 06:29:10;;;;;;;9.13;5.78;;;;;;;;;;5008224;28;20062;-82
2023/08/22 06:31:36;;;;;;;11.35;6.78;;;;;;;;;;5005162;28;20088;-82
2023/08/22 06:34:01;;;;;;;9.30;6.63;;;;;;;;;;5011625;28;20065;-82
2023/08/22 06:36:27;;;;;;;8.50;6.40;;;;;;;;;;5009556;28;20029;-82
2023/08/22 06:38:53;;;;;;;9.75;6.40;;;;;;;;;;5010843;28;20033;-82
2023/08/22 06:41:19;;;;;;;7.78;6.35;;;;;;;;;;5008196;28;20099;-82
2023/08/22 06:43:44;;;;;;;7.97;5.85;;;;;;;;;;5012194;28;20084;-82
2023/08/22 06:46:10;;;;;;;9.98;6.47;;;;;;;;;;5010373;28;20022;-82
2023/08/22 06:48:35;;;;;;;8.90;7.22;;;;;;;;;;5014510;28;20033;-82
2023/08/22 06:51:00;;;;;;;10.02;6.40;;;;;;;;;;5013083;28;20029;-82
2023/08/22 06:53:26;;;;;;;8.02;5.63;;;;;;;;;;5018944;28;20030;-82
2023/08/22 06:55:54;;;;;;;8.77;5.43;;;;;;;;;;5011296;28;20187;-82
2023/08/22 06:58:19;;;;;;;7.43;4.75;;;;;;;;;;5008464;28;20109;-82
2023/08/22 07:00:46;;;;;;;6.97;5.28;;;;;;;;;;5006743;28;20057;-82
2023/08/22 07:03:11;;;;;;;7.18;5.22;;;;;;;;;;5014629;28;20441;-82
2023/08/22 07:05:37;;;;;;;6.47;4.25;;;;;;;;;;5011313;28;21012;-82
2023/08/22 07:08:03;;;;;;;8.68;4.30;;;;;;;;;;5014548;28;20032;-82
2023/08/22 07:10:28;;;;;;;6.60;4.15;;;;;;;;;;5011241;28;20021;-81
2023/08/22 07:12:54;;;;;;;5.80;4.03;;;;;;;;;;5017929;28;20109;-80
2023/08/22 07:15:19;;;;;;;6.60;4.43;;;;;;;;;;5020411;28;20066;-80
2023/08/22 07:17:45;;;;;;;7.38;4.85;;;;;;;;;;5020329;28;20437;-79
2023/08/22 07:20:10;;;;;;;10.95;5.38;;;;;;;;;;5020444;28;20026;-78
2023/08/22 07:22:36;;;;;;;9.05;6.00;;;;;;;;;;5016560;28;20033;-78
2023/08/22 07:25:01;;;;;;;8.57;5.30;;;;;;;;;;5019151;28;20026;-79
2023/08/22 07:27:27;;;;;;;8.05;3.80;;;;;;;;;;5016624;28;20033;-80
2023/08/22 07:29:52;;;;;;;7.05;3.60;;;;;;;;;;5016432;28;20489;-79
2023/08/22 07:32:20;;;;;;;10.90;3.65;;;;;;;;;;5021603;28;20022;-79
2023/08/22 07:34:49;;;;;;;6.43;3.40;;;;;;;;;;5013695;28;20054;-80
2023/08/22 07:37:15;;;;;;;6.57;3.53;;;;;;;;;;5011457;28;20053;-78
2023/08/22 07:39:42;;;;;;;5.00;2.70;;;;;;;;;;5016661;28;20116;-78
2023/08/22 07:42:08;;;;;;;6.35;2.70;;;;;;;;;;5016788;28;20359;-79
2023/08/22 07:44:33;;;;;;;4.15;2.20;;;;;;;;;;5015811;28;20041;-78
2023/08/22 07:46:59;;;;;;;4.95;2.20;;;;;;;;;;5013498;28;20045;-78
2023/08/22 07:49:27;;;;;;;5.15;2.10;;;;;;;;;;5012558;28;20056;-78
2023/08/22 07:51:52;;;;;;;4.88;2.22;;;;;;;;;;5015775;28;20021;-79
2023/08/22 07:54:18;;;;;;;4.28;2.22;;;;;;;;;;5006353;28;20029;-78
2023/08/22 07:56:46;;;;;;;5.28;2.70;;;;;;;;;;5014101;28;20018;-79
2023/08/22 07:59:20;;;;;;;6.18;2.08;;;;;;;;;;5024023;28;20034;-79
2023/08/22 08:01:48;;;;;;;7.35;3.13;;;;;;;;;;5017365;28;20018;-79
2023/08/22 08:04:46;;;;;;;6.93;2.70;;;;;;;;;;5018792;28;20477;-79
2023/08/22 08:07:12;;;;;;;5.38;2.20;;;;;;;;;;5029839;28;20401;-79
2023/08/22 08:09:38;;;;;;;5.45;1.98;;;;;;;;;;5021578;28;20026;-78
2023/08/22 08:12:04;;;;;;;4.85;1.88;;;;;;;;;;5023172;28;20021;-81
2023/08/22 08:14:29;;;;;;;4.45;2.08;;;;;;;;;;5018279;28;20533;-82
2023/08/22 08:16:55;;;;;;;3.97;1.88;;;;;;;;;;5017280;28;20018;-83
2023/08/22 08:19:22;;;;;;;4.93;2.20;;;;;;;;;;5009183;28;20069;-82
2023/08/22 08:21:48;;;;;;;6.47;2.78;;;;;;;;;;5013331;28;20479;-85
2023/08/22 08:24:15;;;;;;;5.35;2.72;;;;;;;;;;5014771;28;20117;-85
2023/08/22 08:26:40;;;;;;;7.18;2.40;;;;;;;;;;5015148;28;20105;-85
2023/08/22 08:29:06;;;;;;;7.10;2.60;;;;;;;;;;5011497;28;20463;-85
2023/08/22 08:31:31;;;;;;;6.85;3.00;;;;;;;;;;5009703;28;20037;-84
2023/08/22 08:33:57;;;;;;;7.38;4.00;;;;;;;;;;5014346;28;20105;-85
2023/08/22 08:36:22;;;;;;;9.05;2.92;;;;;;;;;;5013795;28;20038;-84
2023/08/22 08:38:48;;;;;;;8.73;3.42;;;;;;;;;;5018431;28;20022;-84
2023/08/22 08:41:14;;;;;;;8.63;3.10;;;;;;;;;;5012436;28;20025;-86
2023/08/22 08:43:40;;;;;;;9.75;3.03;;;;;;;;;;5010693;28;20494;-84
2023/08/22 08:46:06;;;;;;;7.10;3.45;;;;;;;;;;5017592;28;20394;-86
2023/08/22 08:48:33;;;;;;;7.70;3.03;;;;;;;;;;5013585;28;20027;-86
2023/08/22 08:51:01;;;;;;;6.03;2.75;;;;;;;;;;5016678;28;20556;-85
2023/08/22 08:53:27;;;;;;;8.90;3.30;;;;;;;;;;5014366;28;20031;-85
2023/08/22 08:55:53;;;;;;;7.38;2.97;;;;;;;;;;5015979;28;20022;-85
2023/08/22 08:58:18;;;;;;;6.25;2.90;;;;;;;;;;5013522;28;20033;-86
2023/08/22 09:00:45;;;;;;;7.53;3.03;;;;;;;;;;5019762;28;20034;-86
2023/08/22 09:03:11;;;;;;;8.18;3.25;;;;;;;;;;5007929;28;20536;-85
2023/08/22 09:05:37;;;;;;;7.47;2.92;;;;;;;;;;5017316;28;20026;-87
2023/08/22 09:08:19;;;;;;;4.95;2.45;;;;;;;;;;5012290;28;20083;-86
2023/08/22 09:10:50;;;;;;;5.95;3.00;;;;;;;;;;5016686;28;20042;-86
2023/08/22 09:13:24;;;;;;;7.75;3.55;;;;;;;;;;5006982;28;20030;-85
2023/08/22 09:15:49;;;;;;;7.25;3.60;;;;;;;;;;5015049;28;20018;-85
2023/08/22 09:18:14;;;;;;;9.32;3.33;;;;;;;;;;5011904;28;20030;-86
2023/08/22 09:20:45;;;;;;;5.90;2.97;;;;;;;;;;5012424;28;20029;-84
2023/08/22 09:23:41;;;;;;;6.45;3.28;;;;;;;;;;5017349;28;20466;-86
2023/08/22 09:26:07;;;;;;;8.23;4.03;;;;;;;;;;5003249;28;20030;-86
2023/08/22 09:28:39;;;;;;;7.35;4.45;;;;;;;;;;5011009;28;20021;-86
2023/08/22 09:31:05;;;;;;;9.63;3.70;;;;;;;;;;5012918;28;20108;-84
2023/08/22 09:33:47;;;;;;;8.80;3.88;;;;;;;;;;5010585;28;20121;-83
2023/08/22 09:36:12;;;;;;;9.25;4.38;;;;;;;;;;5011743;28;20092;-85
2023/08/22 09:38:58;;;;;;;10.48;3.88;;;;;;;;;;5016630;28;20021;-86
2023/08/22 09:41:25;;;;;;;7.97;3.97;;;;;;;;;;5010303;28;20061;-85
2023/08/22 09:44:02;;;;;;;8.23;3.85;;;;;;;;;;5007412;28;20026;-86
2023/08/22 09:46:27;;;;;;;6.10;3.53;;;;;;;;;;5011232;28;20033;-86
2023/08/22 09:48:56;;;;;;;7.40;3.28;;;;;;;;;;5013487;28;20477;-86
2023/08/22 09:51:22;;;;;;;8.02;3.22;;;;;;;;;;5013605;28;20033;-86
2023/08/22 09:53:53;;;;;;;7.82;3.30;;;;;;;;;;5013381;28;20409;-86
2023/08/22 09:56:23;;;;;;;7.82;3.45;;;;;;;;;;5005964;28;20539;-86
2023/08/22 09:58:49;;;;;;;5.10;2.80;;;;;;;;;;5020075;28;20040;-85
2023/08/22 10:01:16;;;;;;;5.82;2.88;;;;;;;;;;5012279;28;20474;-85
2023/08/22 10:03:48;;;;;;;6.95;2.80;;;;;;;;;;5013484;28;20533;-86
2023/08/22 10:06:14;;;;;;;4.97;2.38;;;;;;;;;;5018637;28;20041;-87
2023/08/22 10:08:46;;;;;;;7.15;2.35;;;;;;;;;;5011733;28;20029;-86
2023/08/22 10:11:13;;;;;;;5.13;2.35;;;;;;;;;;5011576;28;20524;-86
2023/08/22 10:13:40;;;;;;;5.03;2.22;;;;;;;;;;5013413;28;20421;-86
2023/08/22 10:16:06;;;;;;;5.35;1.60;;;;;;;;;;5018398;28;20064;-85
2023/08/22 10:18:32;;;;;;;3.45;1.17;;;;;;;;;;5017572;28;20032;-86
2023/08/22 10:20:58;;;;;;;2.63;1.00;;;;;;;;;;5016517;28;20061;-85
2023/08/22 10:23:52;;;;;;;2.20;0.70;;;;;;;;;;5005745;28;20473;-85
2023/08/22 10:26:22;;;;;;;3.10;0.90;;;;;;;;;;5001471;28;20035;-85
2023/08/22 10:29:14;;;;;;;1.60;1.00;;;;;;;;;;5007118;28;20056;-85
2023/08/22 10:32:01;;;;;;;2.65;1.02;;;;;;;;;;5004954;28;20026;-86
2023/08/22 10:34:38;;;;;;;3.65;1.05;;;;;;;;;;5012193;28;20026;-83
2023/08/22 10:37:19;;;;;;;2.33;0.90;;;;;;;;;;5012533;28;20053;-83
2023/08/22 10:39:47;;;;;;;2.67;0.93;;;;;;;;;;5007108;28;20022;-83
2023/08/22 10:42:20;;;;;;;6.13;1.52;;;;;;;;;;5013674;28;20033;-83
2023/08/22 10:44:56;;;;;;;2.83;1.10;;;;;;;;;;5004219;28;20025;-83
2023/08/22 10:47:27;;;;;;;3.35;1.17;;;;;;;;;;5009494;28;20037;-83
2023/08/22 10:49:57;;;;;;;4.07;1.95;;;;;;;;;;5012465;28;20021;-83
2023/08/22 10:52:26;;;;;;;2.88;1.50;;;;;;;;;;5012689;28;20041;-83
2023/08/22 10:54:57;;;;;;;5.78;1.45;;;;;;;;;;5011883;28;20030;-83
2023/08/22 10:57:24;;;;;;;3.35;1.30;;;;;;;;;;5011221;28;20430;-83
2023/08/22 10:59:59;;;;;;;4.43;1.33;;;;;;;;;;5010820;28;20405;-83
2023/08/22 11:02:29;;;;;;;3.88;1.30;;;;;;;;;;5003509;28;20037;-83
2023/08/22 11:04:59;;;;;;;5.05;1.45;;;;;;;;;;5015526;28;20022;-83
2023/08/22 11:07:26;;;;;;;3.30;1.20;;;;;;;;;;5014213;28;20026;-83
2023/08/22 11:09:53;;;;;;;6.15;1.50;;;;;;;;;;5006466;28;20030;-83
2023/08/22 11:12:19;;;;;;;3.25;1.30;;;;;;;;;;5009126;28;20072;-83
2023/08/22 11:14:46;;;;;;;3.03;1.10;;;;;;;;;;5011285;28;20463;-83
2023/08/22 11:17:18;;;;;;;2.55;1.15;;;;;;;;;;5011173;28;20660;-83
2023/08/22 11:19:45;;;;;;;3.25;1.13;;;;;;;;;;5018257;28;20021;-83
2023/08/22 11:22:11;;;;;;;3.80;1.27;;;;;;;;;;5009553;28;20026;-82
2023/08/22 11:24:40;;;;;;;2.80;1.00;;;;;;;;;;5003539;28;20028;-84
2023/08/22 11:27:06;;;;;;;3.90;1.13;;;;;;;;;;5006938;28;20547;-82
2023/08/22 11:29:43;;;;;;;4.07;0.93;;;;;;;;;;5001602;28;20105;-83
2023/08/22 11:32:25;;;;;;;4.22;1.25;;;;;;;;;;5011775;28;20112;-83
2023/08/22 11:34:59;;;;;;;3.97;1.20;;;;;;;;;;5006583;28;20030;-83
2023/08/22 11:37:25;;;;;;;3.60;1.00;;;;;;;;;;5007115;28;20045;-84
2023/08/22 11:39:53;;;;;;;3.75;1.63;;;;;;;;;;4999140;28;20018;-84
2023/08/22 11:42:19;;;;;;;3.20;1.20;;;;;;;;;;5011861;28;20037;-85
2023/08/22 11:45:13;;;;;;;4.30;1.30;;;;;;;;;;5012928;28;20030;-85
2023/08/22 11:47:48;;;;;;;4.00;1.35;;;;;;;;;;5006409;28;20133;-85
2023/08/22 11:50:16;;;;;;;4.57;1.50;;;;;;;;;;5022592;28;20478;-85
2023/08/22 11:52:42;;;;;;;4.38;1.42;;;;;;;;;;5015572;28;20034;-83
2023/08/22 11:55:10;;;;;;;2.67;1.20;;;;;;;;;;5012267;28;20113;-84
2023/08/22 11:57:41;;;;;;;5.40;1.50;;;;;;;;;;5013726;28;20030;-85
2023/08/22 12:00:09;;;;;;;2.58;1.13;;;;;;;;;;5007754;28;20042;-86
2023/08/22 12:02:35;;;;;;;3.47;1.10;;;;;;;;;;5003907;28;20042;-86
2023/08/22 12:05:01;;;;;;;3.50;1.05;;;;;;;;;;5017842;28;20073;-84
2023/08/22 12:07:27;;;;;;;3.08;1.20;;;;;;;;;;5015014;28;20034;-85
2023/08/22 12:10:03;;;;;;;2.45;1.15;;;;;;;;;;5009350;28;20038;-85
2023/08/22 12:12:30;;;;;;;3.13;1.20;;;;;;;;;;5016840;28;20414;-84
2023/08/22 12:14:56;;;;;;;4.18;1.15;;;;;;;;;;5016154;28;20034;-85
2023/08/22 12:17:22;;;;;;;1.92;1.35;;;;;;;;;;5014178;28;20049;-86
2023/08/22 12:19:47;;;;;;;3.80;1.15;;;;;;;;;;5013059;28;20025;-85
2023/08/22 12:22:12;;;;;;;1.98;0.90;;;;;;;;;;5012680;28;20030;-85
2023/08/22 12:24:38;;;;;;;3.83;1.00;;;;;;;;;;5017007;28;20021;-85
2023/08/22 12:27:03;;;;;;;2.35;0.75;;;;;;;;;;5009914;28;20480;-85
2023/08/22 12:29:28;;;;;;;3.80;0.93;;;;;;;;;;5011224;28;20034;-86
2023/08/22 12:31:54;;;;;;;2.92;1.20;;;;;;;;;;5013671;28;20040;-86
2023/08/22 12:34:19;;;;;;;3.03;1.20;;;;;;;;;;5011718;28;20032;-85
2023/08/22 12:36:45;;;;;;;3.72;1.35;;;;;;;;;;5018162;28;20033;-86
2023/08/22 12:39:11;;;;;;;2.55;1.30;;;;;;;;;;5007588;28;20037;-85
2023/08/22 12:41:38;;;;;;;2.63;1.20;;;;;;;;;;5014230;28;20092;-85
2023/08/22 12:44:04;;;;;;;3.08;1.30;;;;;;;;;;5011945;28;20429;-85
2023/08/22 12:46:35;;;;;;;2.95;1.25;;;;;;;;;;5014002;28;20026;-85
2023/08/22 12:49:00;;;;;;;3.95;1.40;;;;;;;;;;5011978;28;20038;-84
2023/08/22 12:51:25;;;;;;;3.67;1.45;;;;;;;;;;5006815;28;20113;-85
2023/08/22 12:53:51;;;;;;;3.60;1.40;;;;;;;;;;5016411;28;20033;-81
2023/08/22 12:56:17;;;;;;;3.58;1.85;;;;;;;;;;5028231;28;20025;-81
2023/08/22 12:58:44;;;;;;;6.05;1.60;;;;;;;;;;5027679;28;20057;-80
2023/08/22 13:01:09;;;;;;;3.60;1.70;;;;;;;;;;5017694;28;20041;-81
2023/08/22 13:03:35;;;;;;;5.70;1.67;;;;;;;;;;5018112;28;20021;-83
2023/08/22 13:06:00;;;;;;;4.35;1.88;;;;;;;;;;5013369;28;20108;-83
2023/08/22 13:08:26;;;;;;;6.18;1.85;;;;;;;;;;5016822;28;20397;-83
2023/08/22 13:10:54;;;;;;;3.90;2.42;;;;;;;;;;5019531;28;20032;-83
2023/08/22 13:13:21;;;;;;;4.32;2.20;;;;;;;;;;5006158;28;20053;-83
2023/08/22 13:15:47;;;;;;;5.60;2.42;;;;;;;;;;5014240;28;20108;-83
2023/08/22 13:18:13;;;;;;;5.75;2.60;;;;;;;;;;5014436;28;20481;-83
2023/08/22 13:20:38;;;;;;;7.28;2.70;;;;;;;;;;5016107;28;20164;-83
2023/08/22 13:23:03;;;;;;;7.28;3.13;;;;;;;;;;5014591;28;20025;-83
2023/08/22 13:25:29;;;;;;;4.97;2.60;;;;;;;;;;5010446;28;20493;-83
2023/08/22 13:27:54;;;;;;;6.32;2.13;;;;;;;;;;5025109;28;20046;-83
2023/08/22 13:30:20;;;;;;;4.60;2.05;;;;;;;;;;5009727;28;20490;-82
2023/08/22 13:32:45;;;;;;;4.60;1.80;;;;;;;;;;5018307;28;20017;-83
2023/08/22 13:35:14;;;;;;;5.45;1.95;;;;;;;;;;5007896;28;20023;-83
2023/08/22 13:37:40;;;;;;;4.63;1.85;;;;;;;;;;5011204;28;20493;-83
2023/08/22 13:40:07;;;;;;;5.75;2.00;;;;;;;;;;5011469;28;20037;-83
2023/08/22 13:42:32;;;;;;;4.45;1.90;;;;;;;;;;5016432;28;20091;-83
2023/08/22 13:44:58;;;;;;;4.10;2.40;;;;;;;;;;5009888;28;20108;-83
2023/08/22 13:47:24;;;;;;;7.55;2.45;;;;;;;;;;5002181;28;20022;-83
2023/08/22 13:49:50;;;;;;;4.68;2.30;;;;;;;;;;5012998;28;20044;-82
2023/08/22 13:52:16;;;;;;;5.63;2.42;;;;;;;;;;5010716;28;20059;-83
2023/08/22 13:54:41;;;;;;;4.75;2.10;;;;;;;;;;5008009;28;20501;-83
2023/08/22 13:57:06;;;;;;;5.50;2.88;;;;;;;;;;5004014;28;20037;-85
2023/08/22 13:59:32;;;;;;;6.50;3.28;;;;;;;;;;5002173;28;20030;-84
2023/08/22 14:01:57;;;;;;;14.82;5.40;;;;;;;;;;5014525;28;20022;-84
2023/08/22 14:04:23;;;;;;;9.02;3.85;;;;;;;;;;5016093;28;20117;-84
2023/08/22 14:06:48;;;;;;;7.93;3.47;;;;;;;;;;5022110;28;20037;-82
2023/08/22 14:09:14;;;;;;;9.52;3.30;;;;;;;;;;5021219;28;20033;-83
2023/08/22 14:11:39;;;;;;;6.70;3.08;;;;;;;;;;5013843;28;20538;-82
2023/08/22 14:14:05;;;;;;;9.60;4.10;;;;;;;;;;5017725;28;20032;-87
2023/08/22 14:16:30;;;;;;;6.80;3.28;;;;;;;;;;5011717;28;20458;-85
2023/08/22 14:18:56;;;;;;;7.55;3.10;;;;;;;;;;5011498;28;20021;-86
2023/08/22 14:21:21;;;;;;;5.93;2.50;;;;;;;;;;5005838;28;20033;-86
2023/08/22 14:23:47;;;;;;;5.00;2.60;;;;;;;;;;5006826;28;20025;-87
2023/08/22 14:26:12;;;;;;;7.60;3.03;;;;;;;;;;5007760;28;20112;-87
2023/08/22 14:31:41;;;;;;;5.78;2.45;;;;;;;;;;5009164;28;20045;-86
2023/08/22 14:34:22;;;;;;;6.20;2.65;;;;;;;;;;5008333;28;20034;-85
2023/08/22 14:37:08;;;;;;;4.50;2.35;;;;;;;;;;5006711;28;20026;-85
2023/08/22 14:39:52;;;;;;;;;;;;;;;;;;;;;
2023/08/22 14:42:18;;;;;;;5.38;2.17;;;;;;;;;;5007472;28;20030;-87
2023/08/22 14:44:44;;;;;;;5.13;2.50;;;;;;;;;;5003241;28;20144;-85
2023/08/22 14:47:09;;;;;;;6.18;3.30;;;;;;;;;;4991719;28;20482;-86